Aérodrome :
LOGIN :

S'inscrire | Disclaimer

   EN    FR    IT 

 










Légende :    VFR   VFR Marginal   IFR   IFR Intensif   IFR Très Intensif
Visi : 
Plafond : 
>= 8 km
>= 3000ft
5 à 8 km
1000 à 3000 ft
1500m à 5 km
500 à 1000 ft
800 à 1500m
200 à 500 ft
< 800m
< 200 ft
Symboles :   Orages  Brouillard  Fortes neiges  Fortes précipitations  Vent > 20 kt
SIGMETs :   Divers  Orages  Givrage  Turbulence  Onde Orograph.  Cendres Volcan.






- Altitude de l'aérodrome : 257 ft
- Code IATA : MAN


EGCC - Manchester

DERNIER METAR :
  • 290950Z AUTO 25007KT 9999 NCD 08/05 Q1003

METARs EXPIRÉS :
  • 290920Z AUTO 24005KT 190V270 9999 FEW025 08/05 Q1002
  • 290850Z 25004KT CAVOK 08/05 Q1003
  • 290820Z 24006KT 190V260 9999 FEW045TCU 07/04 Q1003
  • 290750Z 24004KT 9999 FEW045 07/04 Q1003 NOSIG
  • 290720Z AUTO 22003KT 9999 NCD 07/05 Q1003 NOSIG
  • 290650Z 26004KT 9999 SCT028 SCT044 08/06 Q1002 NOSIG
  • 290620Z VRB02KT 9999 SCT030 BKN045 08/06 Q1002 NOSIG
  • 290550Z AUTO 23005KT 190V260 9999 NCD 08/06 Q1002 NOSIG

TAF TAF EGCC
Valide du 29 à 06h jusqu'au 01 à 12h UTC


290454Z 2906/0112 22006KT 9999 FEW030
PROB30
TEMPO 2914/2919 6000 SHRA
BECMG 0103/0106 08012KT
PROB40
TEMPO 0106/0112 09015G25KT
TEMPO 0107/0112 6000 RA BKN012
PROB30
TEMPO 0107/0112 3000 RASN +RA BKN006
ATIS : +44 161 499 2324



MET'MAP, la Météo Aéronautique d'un coup d'oeil ! - Copyright ORBIFLY Décembre 2007 - Disclaimer

ORBIFLY MET'MAP TEAM :

Programmation & Développement : Alexandra Zaïnal
Sur une idée originale de : Baudouin d'Aumeries
Soutien technique & logistique : Manuel Goepfert
Assistance : Marc-Olivier Méhu




SOURCES & CREDITS :

   NOAA